Porter County Municipal Airport Valparaiso US
ICAO: KVPZ
IATA: VPZ
Category: Medium
Scheduled Services: No

Elevation: 770 ft
TransAlt. 18000 ft.

Airport Communications:
SOUTH BEND APP/DEP:132.05
ASOS:125.875
SOUTH BEND CLNC DEL:135.2
CTAF:122.725
TERRE HAUTE RDO:123.65
UNICOM:122.725

KVPZ Zoom In..

If you have problems with the map follow the link
https://www.worldairports.se/pages/airport.php?
ICAO=KVPZ

Runways:

(A) RW 09 length 7001 ft width 150 ft
---- / hdg 92

(B) RW 18 length 4001 ft width 75 ft
---- / hdg 182

(C) RW 27 length 7001 ft width 150 ft
ILS 109.70 / hdg 272

(D) RW 36 length 4001 ft width 75 ft
---- / hdg 2

Location; KVPZ
Day. 13 / Time. 20.56 Zulu
* Altimeter: 29.86
* Temperature: 07° c. 44.6°f.
* Wind from: 190° Speed 06 kn.
Dewpoint: -02° c.
Visibility: 10 Statute Miles.
Clouds: Few 6000 ft.

KVPZ 132056Z AUTO 19006KT 10SM FEW060 07/M02 A2986 RMK AO2 SLP118 T00671017 56018 $


Wind From 190°
Speed 06 kn.

 
 
jpsmedia worldairports.se 2019   terms of use